createdAt,value
2018-04-01T00:00:09.162Z,66.84
2018-04-01T00:01:09.167Z,66.47
2018-04-01T00:02:09.163Z,66.47
2018-04-01T00:03:09.166Z,66.75
2018-04-01T00:04:09.180Z,66.75
2018-04-01T00:05:09.173Z,66.28
2018-04-01T00:06:09.176Z,65.99
2018-04-01T00:07:09.186Z,66.37
2018-04-01T00:08:09.183Z,66.18
2018-04-01T00:09:09.192Z,65.99
2018-04-01T00:10:09.195Z,65.90
2018-04-01T00:11:09.197Z,65.80
2018-04-01T00:12:09.200Z,66.28
2018-04-01T00:13:09.204Z,65.71
2018-04-01T00:14:09.206Z,65.99
2018-04-01T00:15:09.205Z,65.42
2018-04-01T00:16:09.206Z,64.67
2018-04-01T00:17:09.208Z,64.29
2018-04-01T00:18:09.214Z,64.48
2018-04-01T00:19:09.225Z,63.73
2018-04-01T00:20:09.219Z,63.73
2018-04-01T00:21:09.220Z,63.45
2018-04-01T00:22:09.231Z,62.40
2018-04-01T00:23:09.228Z,63.54
2018-04-01T00:24:09.240Z,64.58
2018-04-01T00:25:09.232Z,64.58
2018-04-01T00:26:09.235Z,65.05
2018-04-01T00:27:09.238Z,65.05
2018-04-01T00:28:09.249Z,64.48
2018-04-01T00:29:09.245Z,63.63
2018-04-01T00:30:09.252Z,63.16
2018-04-01T00:31:09.251Z,63.16
2018-04-01T00:32:09.254Z,63.16
2018-04-01T00:33:09.259Z,62.88
2018-04-01T00:34:09.264Z,62.50
2018-04-01T00:35:09.267Z,62.40
2018-04-01T00:36:09.265Z,62.21
2018-04-01T00:37:09.268Z,62.59
2018-04-01T00:38:09.275Z,61.74
2018-04-01T00:39:09.274Z,62.40
2018-04-01T00:40:09.282Z,62.97
2018-04-01T00:41:09.279Z,63.63
2018-04-01T00:42:09.288Z,64.20
2018-04-01T00:43:09.291Z,64.39
2018-04-01T00:44:09.294Z,62.12
2018-04-01T00:45:09.290Z,60.61
2018-04-01T00:46:09.297Z,60.24
2018-04-01T00:47:09.297Z,60.33
2018-04-01T00:48:09.311Z,60.24
2018-04-01T00:49:09.301Z,60.61
2018-04-01T00:50:09.310Z,61.84
2018-04-01T00:51:09.313Z,61.65
2018-04-01T00:52:09.314Z,61.65
2018-04-01T00:53:09.353Z,62.31
2018-04-01T00:54:09.317Z,62.59
2018-04-01T00:55:09.323Z,62.88
2018-04-01T00:56:09.323Z,63.45
2018-04-01T00:57:09.334Z,62.12
2018-04-01T00:58:09.334Z,61.74
2018-04-01T00:59:09.332Z,62.12
2018-04-01T01:00:09.339Z,63.54
2018-04-01T01:01:09.341Z,64.29
2018-04-01T01:02:09.345Z,66.18
2018-04-01T01:03:09.344Z,67.97
2018-04-01T01:04:09.346Z,69.01
2018-04-01T01:05:09.348Z,69.30
2018-04-01T01:06:09.373Z,70.24
2018-04-01T01:07:09.354Z,69.96
2018-04-01T01:08:09.363Z,70.43
2018-04-01T01:09:09.366Z,70.05
2018-04-01T01:10:09.369Z,68.73
2018-04-01T01:11:09.367Z,67.13
2018-04-01T01:12:09.375Z,64.48
2018-04-01T01:13:09.374Z,62.78
2018-04-01T01:14:09.374Z,61.27
2018-04-01T01:15:09.385Z,59.48
2018-04-01T01:16:09.387Z,59.38
2018-04-01T01:17:09.384Z,61.18
2018-04-01T01:18:09.393Z,66.94
2018-04-01T01:19:09.398Z,70.62
2018-04-01T01:20:09.398Z,72.98
2018-04-01T01:21:09.401Z,73.83
2018-04-01T01:22:09.404Z,73.45
2018-04-01T01:23:09.408Z,71.00
2018-04-01T01:24:09.410Z,70.43
2018-04-01T01:25:09.407Z,70.62
2018-04-01T01:26:09.416Z,71.84
2018-04-01T01:27:09.418Z,72.51
2018-04-01T01:28:09.423Z,72.41
2018-04-01T01:29:09.425Z,72.22
2018-04-01T01:30:09.430Z,73.74
2018-04-01T01:31:09.426Z,74.68
2018-04-01T01:32:09.428Z,75.34
2018-04-01T01:33:09.436Z,76.38
2018-04-01T01:34:09.441Z,77.80
2018-04-01T01:35:09.436Z,78.08
2018-04-01T01:36:09.446Z,78.64
2018-04-01T01:37:09.447Z,79.40
2018-04-01T01:38:09.452Z,79.78
2018-04-01T01:39:09.454Z,79.78
2018-04-01T01:40:09.452Z,80.15
2018-04-01T01:41:09.458Z,80.53
2018-04-01T01:42:09.455Z,81.57
2018-04-01T01:43:09.460Z,81.95
2018-04-01T01:44:09.464Z,82.14
2018-04-01T01:45:09.465Z,82.23
2018-04-01T01:46:09.470Z,82.61
2018-04-01T01:47:09.475Z,82.89
2018-04-01T01:48:09.481Z,82.51
2018-04-01T01:49:09.477Z,83.08
2018-04-01T01:50:09.486Z,84.22
2018-04-01T01:51:09.483Z,84.50
2018-04-01T01:52:09.493Z,84.41
2018-04-01T01:53:09.489Z,84.59
2018-04-01T01:54:09.496Z,84.12
2018-04-01T01:55:09.496Z,84.03
2018-04-01T01:56:09.502Z,84.50
2018-04-01T01:57:09.506Z,84.22
2018-04-01T01:58:09.509Z,83.65
2018-04-01T01:59:09.512Z,83.36
2018-04-01T02:00:09.511Z,83.84
2018-04-01T02:01:09.516Z,83.46
2018-04-01T02:02:09.515Z,84.03
2018-04-01T02:03:09.520Z,84.03
2018-04-01T02:04:09.521Z,84.03
2018-04-01T02:05:09.523Z,83.55
2018-04-01T02:06:09.527Z,83.65
2018-04-01T02:07:09.530Z,82.70
2018-04-01T02:08:09.533Z,83.04
2018-04-01T02:09:09.542Z,83.14
2018-04-01T02:10:09.545Z,83.14
2018-04-01T02:11:09.547Z,83.98
2018-04-01T02:12:09.550Z,84.36
2018-04-01T02:13:09.551Z,83.98
2018-04-01T02:14:09.550Z,84.17
2018-04-01T02:15:09.560Z,84.45
2018-04-01T02:16:09.560Z,85.21
2018-04-01T02:17:09.558Z,85.68
2018-04-01T02:18:09.567Z,85.77
2018-04-01T02:19:09.564Z,86.15
2018-04-01T02:20:09.571Z,86.72
2018-04-01T02:21:09.573Z,86.82
2018-04-01T02:22:09.573Z,86.63
2018-04-01T02:23:09.581Z,86.44
2018-04-01T02:24:09.583Z,86.82
2018-04-01T02:25:09.584Z,86.34
2018-04-01T02:26:09.583Z,86.82
2018-04-01T02:27:09.586Z,86.63
2018-04-01T02:28:09.594Z,86.06
2018-04-01T02:29:09.596Z,85.68
2018-04-01T02:30:09.598Z,83.98
2018-04-01T02:31:09.597Z,82.85
2018-04-01T02:32:09.601Z,82.19
2018-04-01T02:33:09.607Z,81.34
2018-04-01T02:34:09.610Z,81.43
2018-04-01T02:35:09.613Z,81.05
2018-04-01T02:36:09.608Z,82.19
2018-04-01T02:37:09.611Z,82.76
2018-04-01T02:38:09.615Z,83.33
2018-04-01T02:39:09.624Z,83.23
2018-04-01T02:40:09.625Z,83.51
2018-04-01T02:41:09.626Z,83.98
2018-04-01T02:42:09.637Z,84.41
2018-04-01T02:43:09.633Z,83.98
2018-04-01T02:44:09.640Z,84.03
2018-04-01T02:45:09.631Z,84.59
2018-04-01T02:46:09.635Z,84.69
2018-04-01T02:47:09.656Z,84.03
2018-04-01T02:48:09.670Z,84.69
2018-04-01T02:49:09.642Z,84.78
2018-04-01T02:50:09.649Z,84.69
2018-04-01T02:51:09.650Z,84.31
2018-04-01T02:52:09.658Z,84.12
2018-04-01T02:53:09.652Z,84.50
2018-04-01T02:54:09.661Z,86.91
2018-04-01T02:55:09.658Z,88.70
2018-04-01T02:56:09.659Z,89.36
2018-04-01T02:57:09.668Z,90.12
2018-04-01T02:58:09.665Z,91.16
2018-04-01T02:59:09.676Z,91.16
2018-04-01T03:00:09.682Z,90.87
2018-04-01T03:01:09.676Z,90.68
2018-04-01T03:02:09.673Z,90.02
2018-04-01T03:03:09.725Z,90.02
2018-04-01T03:04:09.679Z,89.64
2018-04-01T03:05:09.685Z,89.45
2018-04-01T03:06:09.684Z,89.64
2018-04-01T03:07:09.690Z,89.64
2018-04-01T03:08:09.694Z,88.70
2018-04-01T03:09:09.701Z,88.13
2018-04-01T03:10:09.692Z,87.19
2018-04-01T03:11:09.705Z,87.43
2018-04-01T03:12:09.698Z,87.62
2018-04-01T03:13:09.706Z,88.18
2018-04-01T03:14:09.712Z,88.28
2018-04-01T03:15:09.711Z,88.18
2018-04-01T03:16:09.708Z,87.33
2018-04-01T03:17:09.717Z,87.24
2018-04-01T03:18:09.720Z,87.33
2018-04-01T03:19:09.723Z,87.05
2018-04-01T03:20:09.720Z,87.05
2018-04-01T03:21:09.728Z,87.33
2018-04-01T03:22:09.732Z,87.33
2018-04-01T03:23:09.736Z,87.62
2018-04-01T03:24:09.736Z,87.99
2018-04-01T03:25:09.743Z,88.37
2018-04-01T03:26:09.742Z,88.28
2018-04-01T03:27:09.739Z,88.18
2018-04-01T03:28:09.747Z,88.09
2018-04-01T03:29:09.751Z,88.09
2018-04-01T03:30:09.754Z,88.65
2018-04-01T03:31:09.757Z,89.03
2018-04-01T03:32:09.759Z,89.22
2018-04-01T03:33:09.761Z,89.59
2018-04-01T03:34:09.759Z,89.03
2018-04-01T03:35:09.767Z,89.97
2018-04-01T03:36:09.765Z,90.45
2018-04-01T03:37:09.774Z,89.97
2018-04-01T03:38:09.770Z,89.88
2018-04-01T03:39:09.778Z,89.88
2018-04-01T03:40:09.778Z,90.54
2018-04-01T03:41:09.783Z,89.97
2018-04-01T03:42:09.785Z,89.69
2018-04-01T03:43:09.790Z,89.22
2018-04-01T03:44:09.802Z,89.69
2018-04-01T03:45:09.790Z,89.69
2018-04-01T03:46:09.798Z,89.59
2018-04-01T03:47:09.801Z,89.40
2018-04-01T03:48:09.798Z,88.84
2018-04-01T03:49:09.801Z,89.40
2018-04-01T03:50:09.804Z,88.93
2018-04-01T03:51:09.806Z,88.46
2018-04-01T03:52:09.811Z,88.84
2018-04-01T03:53:09.813Z,89.12
2018-04-01T03:54:09.814Z,89.59
2018-04-01T03:55:09.821Z,89.40
2018-04-01T03:56:09.823Z,89.69
2018-04-01T03:57:09.825Z,89.12
2018-04-01T03:58:09.830Z,89.22
2018-04-01T03:59:09.826Z,89.40
2018-04-01T04:00:09.830Z,89.88
2018-04-01T04:01:09.831Z,89.88
2018-04-01T04:02:09.839Z,90.07
2018-04-01T04:03:09.844Z,90.16
2018-04-01T04:04:09.841Z,90.45
2018-04-01T04:05:09.848Z,90.35
2018-04-01T04:06:09.845Z,90.73
2018-04-01T04:07:09.856Z,90.82
2018-04-01T04:08:09.850Z,90.64
2018-04-01T04:09:09.856Z,90.26
2018-04-01T04:10:09.864Z,90.07
2018-04-01T04:11:09.859Z,90.26
2018-04-01T04:12:09.871Z,89.31
2018-04-01T04:13:09.868Z,89.88
2018-04-01T04:14:09.866Z,90.26
2018-04-01T04:15:09.873Z,90.07
2018-04-01T04:16:09.872Z,90.82
2018-04-01T04:17:09.878Z,91.39
2018-04-01T04:18:09.882Z,91.30
2018-04-01T04:19:09.883Z,91.49
2018-04-01T04:20:09.881Z,91.39
2018-04-01T04:21:09.884Z,91.39
2018-04-01T04:22:09.892Z,90.73
2018-04-01T04:23:09.898Z,90.64
2018-04-01T04:24:09.897Z,90.73
2018-04-01T04:25:09.900Z,91.49
2018-04-01T04:26:09.898Z,91.11
2018-04-01T04:27:09.901Z,91.86
2018-04-01T04:28:09.908Z,91.86
2018-04-01T04:29:09.911Z,91.11
2018-04-01T04:30:09.914Z,90.92
2018-04-01T04:31:09.919Z,90.45
2018-04-01T04:32:09.970Z,90.45
2018-04-01T04:33:09.916Z,90.73
2018-04-01T04:34:09.918Z,90.26
2018-04-01T04:35:09.923Z,89.88
2018-04-01T04:36:09.931Z,90.16
2018-04-01T04:37:09.930Z,89.97
2018-04-01T04:38:09.935Z,89.50
2018-04-01T04:39:09.940Z,90.07
2018-04-01T04:40:09.937Z,90.35
2018-04-01T04:41:09.939Z,90.45
2018-04-01T04:42:09.937Z,90.82
2018-04-01T04:43:09.946Z,90.45
2018-04-01T04:44:09.950Z,90.73
2018-04-01T04:45:09.951Z,90.87
2018-04-01T04:46:09.949Z,92.00
2018-04-01T04:47:09.952Z,92.57
2018-04-01T04:48:09.954Z,92.95
2018-04-01T04:49:09.956Z,92.38
2018-04-01T04:50:09.969Z,93.04
2018-04-01T04:51:09.961Z,93.04
2018-04-01T04:52:09.970Z,92.95
2018-04-01T04:53:09.966Z,93.04
2018-04-01T04:54:09.974Z,92.47
2018-04-01T04:55:09.971Z,91.06
2018-04-01T04:56:09.978Z,89.93
2018-04-01T04:57:09.975Z,89.88
2018-04-01T04:58:09.982Z,90.31
2018-04-01T04:59:09.980Z,90.02
2018-04-01T05:00:09.986Z,89.83
2018-04-01T05:01:09.983Z,90.87
2018-04-01T05:02:09.993Z,91.82
2018-04-01T05:03:09.994Z,91.91
2018-04-01T05:04:09.990Z,92.00
2018-04-01T05:05:09.999Z,91.63
2018-04-01T05:06:10.002Z,91.44
2018-04-01T05:07:10.004Z,91.72
2018-04-01T05:08:10.006Z,92.10
2018-04-01T05:09:10.007Z,91.91
2018-04-01T05:10:10.018Z,92.19
2018-04-01T05:11:10.016Z,92.76
2018-04-01T05:12:10.016Z,92.29
2018-04-01T05:13:10.016Z,92.47
2018-04-01T05:14:10.018Z,91.72
2018-04-01T05:15:10.022Z,92.10
2018-04-01T05:16:10.022Z,92.19
2018-04-01T05:17:10.087Z,92.00
2018-04-01T05:18:10.023Z,92.47
2018-04-01T05:19:10.024Z,92.10
2018-04-01T05:20:10.026Z,91.44
2018-04-01T05:21:10.028Z,91.16
2018-04-01T05:22:10.037Z,90.59
2018-04-01T05:23:10.039Z,91.44
2018-04-01T05:24:10.036Z,91.35
2018-04-01T05:25:10.043Z,92.19
2018-04-01T05:26:10.044Z,92.19
2018-04-01T05:27:10.042Z,92.57
2018-04-01T05:28:10.046Z,91.72
2018-04-01T05:29:10.052Z,91.63
2018-04-01T05:30:10.047Z,91.53
2018-04-01T05:31:10.054Z,91.35
2018-04-01T05:32:10.062Z,91.44
2018-04-01T05:33:10.059Z,91.63
2018-04-01T05:34:10.062Z,90.78
2018-04-01T05:35:10.059Z,90.92
2018-04-01T05:36:10.068Z,90.87
2018-04-01T05:37:10.064Z,90.73
2018-04-01T05:38:10.066Z,90.87
2018-04-01T05:39:10.068Z,90.73
2018-04-01T05:40:10.076Z,91.11
2018-04-01T05:41:10.073Z,91.49
2018-04-01T05:42:10.080Z,91.72
2018-04-01T05:43:10.084Z,91.49
2018-04-01T05:44:10.094Z,91.39
2018-04-01T05:45:10.084Z,91.49
2018-04-01T05:46:10.083Z,91.82
2018-04-01T05:47:10.086Z,91.67
2018-04-01T05:48:10.094Z,92.00
2018-04-01T05:49:10.092Z,92.24
2018-04-01T05:50:10.099Z,92.19
2018-04-01T05:51:10.100Z,92.47
2018-04-01T05:52:10.098Z,92.38
2018-04-01T05:53:10.107Z,92.38
2018-04-01T05:54:10.113Z,91.35
2018-04-01T05:55:10.110Z,90.59
2018-04-01T05:56:10.113Z,90.78
2018-04-01T05:57:10.109Z,90.40
2018-04-01T05:58:10.117Z,90.31
2018-04-01T05:59:10.121Z,90.31
2018-04-01T06:00:10.122Z,90.87
2018-04-01T06:01:10.125Z,90.02
2018-04-01T06:02:10.122Z,89.83
2018-04-01T06:03:10.123Z,89.93
2018-04-01T06:04:10.126Z,89.64
2018-04-01T06:05:10.134Z,89.74
2018-04-01T06:06:10.137Z,88.51
2018-04-01T06:07:10.140Z,87.57
2018-04-01T06:08:10.136Z,87.00
2018-04-01T06:09:10.137Z,87.33
2018-04-01T06:10:10.144Z,87.43
2018-04-01T06:11:10.142Z,87.71
2018-04-01T06:12:10.150Z,87.99
2018-04-01T06:13:10.152Z,86.86
2018-04-01T06:14:10.148Z,85.82
2018-04-01T06:15:10.156Z,85.44
2018-04-01T06:16:10.158Z,86.19
2018-04-01T06:17:10.183Z,85.91
2018-04-01T06:18:10.163Z,83.74
2018-04-01T06:19:10.166Z,83.17
2018-04-01T06:20:10.177Z,83.36
2018-04-01T06:21:10.170Z,83.36
2018-04-01T06:22:10.174Z,83.27
2018-04-01T06:23:10.170Z,83.17
2018-04-01T06:24:10.174Z,83.36
2018-04-01T06:25:10.179Z,83.27
2018-04-01T06:26:10.178Z,83.08
2018-04-01T06:27:10.184Z,82.89
2018-04-01T06:28:10.181Z,82.70
2018-04-01T06:29:10.184Z,82.23
2018-04-01T06:30:10.185Z,81.48
2018-04-01T06:31:10.193Z,80.44
2018-04-01T06:32:10.208Z,80.15
2018-04-01T06:33:10.201Z,79.40
2018-04-01T06:34:10.200Z,79.59
2018-04-01T06:35:10.203Z,79.78
2018-04-01T06:36:10.201Z,79.40
2018-04-01T06:37:10.206Z,80.06
2018-04-01T06:38:10.216Z,80.25
2018-04-01T06:39:10.208Z,80.72
2018-04-01T06:40:10.237Z,80.15
2018-04-01T06:41:10.212Z,80.53
2018-04-01T06:42:10.221Z,80.34
2018-04-01T06:43:10.223Z,80.91
2018-04-01T06:44:10.226Z,79.68
2018-04-01T06:45:10.229Z,79.59
2018-04-01T06:46:10.226Z,79.11
2018-04-01T06:47:10.228Z,79.49
2018-04-01T06:48:10.237Z,80.06
2018-04-01T06:49:10.234Z,80.06
2018-04-01T06:50:10.243Z,79.59
2018-04-01T06:51:10.249Z,79.78
2018-04-01T06:52:10.244Z,79.59
2018-04-01T06:53:10.249Z,78.92
2018-04-01T06:54:10.253Z,79.49
2018-04-01T06:55:10.251Z,79.30
2018-04-01T06:56:10.255Z,79.02
2018-04-01T06:57:10.256Z,79.02
2018-04-01T06:58:10.259Z,79.30
2018-04-01T06:59:10.272Z,79.87
2018-04-01T07:00:10.272Z,79.97
2018-04-01T07:01:10.271Z,80.15
2018-04-01T07:02:10.271Z,80.82
2018-04-01T07:03:10.273Z,80.82
2018-04-01T07:04:10.281Z,80.25
2018-04-01T07:05:10.288Z,80.91
2018-04-01T07:06:10.280Z,80.72
2018-04-01T07:07:10.285Z,79.87
2018-04-01T07:08:10.288Z,79.30
2018-04-01T07:09:10.294Z,79.82
2018-04-01T07:10:10.298Z,81.29
2018-04-01T07:11:10.303Z,82.51
2018-04-01T07:12:10.353Z,81.85
2018-04-01T07:13:10.311Z,81.76
2018-04-01T07:14:10.313Z,82.04
2018-04-01T07:15:10.318Z,82.80
2018-04-01T07:16:10.314Z,83.17
2018-04-01T07:17:10.320Z,82.89
2018-04-01T07:18:10.319Z,83.36
2018-04-01T07:19:10.321Z,83.36
2018-04-01T07:20:10.326Z,83.93
2018-04-01T07:21:10.334Z,84.03
2018-04-01T07:22:10.337Z,84.31
2018-04-01T07:23:10.340Z,84.69
2018-04-01T07:24:10.344Z,84.50
2018-04-01T07:25:10.347Z,84.69
2018-04-01T07:26:10.347Z,84.69
2018-04-01T07:27:10.348Z,85.53
2018-04-01T07:28:10.351Z,85.49
2018-04-01T07:29:10.354Z,85.86
2018-04-01T07:30:10.357Z,85.01
2018-04-01T07:31:10.361Z,84.92
2018-04-01T07:32:10.364Z,85.63
2018-04-01T07:33:10.365Z,85.58
2018-04-01T07:34:10.376Z,85.44
2018-04-01T07:35:10.375Z,85.72
2018-04-01T07:36:10.377Z,86.10
2018-04-01T07:37:10.391Z,87.14
2018-04-01T07:38:10.420Z,88.75
2018-04-01T07:39:10.393Z,88.37
2018-04-01T07:40:10.402Z,88.23
2018-04-01T07:41:10.395Z,87.28
2018-04-01T07:42:10.404Z,86.99
2018-04-01T07:43:10.402Z,86.24
2018-04-01T07:44:10.407Z,86.19
2018-04-01T07:45:10.415Z,87.24
2018-04-01T07:46:10.422Z,88.04
2018-04-01T07:47:10.424Z,87.90
2018-04-01T07:48:10.427Z,88.28
2018-04-01T07:49:10.425Z,89.88
2018-04-01T07:50:10.434Z,90.45
2018-04-01T07:51:10.436Z,90.54
2018-04-01T07:52:10.441Z,90.64
2018-04-01T07:53:10.444Z,90.26
2018-04-01T07:54:10.445Z,89.97
2018-04-01T07:55:10.445Z,89.22
2018-04-01T07:56:10.449Z,89.40
2018-04-01T07:57:10.455Z,88.75
2018-04-01T07:58:10.455Z,88.18
2018-04-01T07:59:10.467Z,87.09
2018-04-01T08:00:10.467Z,86.24
2018-04-01T08:01:10.466Z,84.73
2018-04-01T08:02:10.468Z,82.18
2018-04-01T08:03:10.479Z,81.04
2018-04-01T08:04:10.482Z,79.16
2018-04-01T08:05:10.480Z,76.89
2018-04-01T08:06:10.484Z,75.28
2018-04-01T08:07:10.490Z,75.09
2018-04-01T08:08:10.497Z,75.76
2018-04-01T08:09:10.502Z,75.79
2018-04-01T08:10:10.498Z,75.98
2018-04-01T08:11:10.509Z,75.04
2018-04-01T08:12:10.513Z,74.19
2018-04-01T08:13:10.510Z,72.96
2018-04-01T08:14:10.516Z,73.71
2018-04-01T08:15:10.520Z,73.33
2018-04-01T08:16:10.528Z,70.31
2018-04-01T08:17:10.532Z,70.12
2018-04-01T08:18:10.539Z,68.52
2018-04-01T08:19:10.540Z,67.57
2018-04-01T08:20:10.542Z,66.82
2018-04-01T08:21:10.548Z,66.72
2018-04-01T08:22:10.548Z,67.95
2018-04-01T08:23:10.554Z,67.66
2018-04-01T08:24:10.563Z,67.38
2018-04-01T08:25:10.562Z,66.66
2018-04-01T08:26:10.565Z,65.91
2018-04-01T08:27:10.573Z,66.28
2018-04-01T08:28:10.575Z,65.15
2018-04-01T08:29:10.579Z,64.11
2018-04-01T08:30:10.590Z,62.12
2018-04-01T08:31:10.593Z,60.33
2018-04-01T08:32:10.604Z,59.95
2018-04-01T08:33:10.603Z,60.49
2018-04-01T08:34:10.611Z,62.09
2018-04-01T08:35:10.613Z,62.69
2018-04-01T08:36:10.615Z,61.43
2018-04-01T08:37:10.628Z,60.80
2018-04-01T08:38:10.624Z,60.23
2018-04-01T08:39:10.627Z,61.71
2018-04-01T08:40:10.656Z,70.21
2018-04-01T08:41:10.643Z,75.13
2018-04-01T08:42:10.655Z,79.76
2018-04-01T08:43:10.649Z,77.69
2018-04-01T08:44:10.653Z,74.19
2018-04-01T08:45:10.665Z,70.73
2018-04-01T08:46:10.662Z,68.55
2018-04-01T08:47:10.667Z,70.16
2018-04-01T08:48:10.678Z,72.94
2018-04-01T08:49:10.682Z,74.26
2018-04-01T08:50:10.690Z,75.02
2018-04-01T08:51:10.689Z,74.55
2018-04-01T08:52:10.699Z,74.26
2018-04-01T08:53:10.752Z,74.93
2018-04-01T08:54:10.708Z,75.87
2018-04-01T08:55:10.716Z,76.78
2018-04-01T08:56:10.719Z,77.01
2018-04-01T08:57:10.724Z,76.72
2018-04-01T08:58:10.733Z,76.53
2018-04-01T08:59:10.733Z,75.96
2018-04-01T09:00:10.746Z,75.78
2018-04-01T09:01:10.747Z,75.21
2018-04-01T09:02:10.752Z,73.41
2018-04-01T09:03:10.757Z,72.09
2018-04-01T09:04:10.769Z,70.76
2018-04-01T09:05:10.780Z,73.75
2018-04-01T09:06:10.776Z,75.07
2018-04-01T09:07:10.792Z,75.59
2018-04-01T09:08:10.792Z,75.17
2018-04-01T09:09:10.793Z,77.06
2018-04-01T09:10:10.806Z,77.34
2018-04-01T09:11:10.813Z,77.44
2018-04-01T09:12:10.817Z,76.68
2018-04-01T09:13:10.822Z,76.31
2018-04-01T09:14:10.833Z,75.83
2018-04-01T09:15:10.837Z,74.83
2018-04-01T09:16:10.839Z,73.98
2018-04-01T09:17:10.844Z,73.60
2018-04-01T09:18:10.855Z,72.94
2018-04-01T09:19:10.862Z,73.32
2018-04-01T09:20:10.867Z,72.37
2018-04-01T09:21:10.874Z,71.90
2018-04-01T09:22:10.910Z,71.71
2018-04-01T09:23:10.887Z,71.42
2018-04-01T09:24:10.892Z,71.61
2018-04-01T09:25:10.902Z,72.28
2018-04-01T09:26:10.904Z,73.98
2018-04-01T09:27:10.905Z,74.79
2018-04-01T09:28:10.918Z,75.07
2018-04-01T09:29:10.922Z,75.64
2018-04-01T09:30:10.925Z,75.83
2018-04-01T09:31:10.932Z,76.02
2018-04-01T09:32:10.946Z,76.02
2018-04-01T09:33:10.942Z,75.83
2018-04-01T09:34:10.951Z,76.83
2018-04-01T09:35:10.962Z,78.53
2018-04-01T09:36:10.968Z,79.67
2018-04-01T09:37:10.973Z,80.71
2018-04-01T09:38:10.975Z,80.62
2018-04-01T09:39:10.987Z,80.71
2018-04-01T09:40:10.987Z,80.80
2018-04-01T09:41:10.997Z,80.27
2018-04-01T09:42:11.008Z,79.52
2018-04-01T09:43:11.023Z,78.67
2018-04-01T09:44:11.016Z,78.67
2018-04-01T09:45:11.015Z,76.97
2018-04-01T09:46:11.028Z,76.31
2018-04-01T09:47:11.034Z,77.06
2018-04-01T09:48:11.034Z,78.16
2018-04-01T09:49:11.040Z,79.76
2018-04-01T09:50:11.050Z,80.84
2018-04-01T09:51:11.058Z,80.71
2018-04-01T09:52:11.060Z,81.18
2018-04-01T09:53:11.069Z,81.65
2018-04-01T09:54:11.075Z,80.56
2018-04-01T09:55:11.084Z,79.24
2018-04-01T09:56:11.104Z,78.48
2018-04-01T09:57:11.086Z,78.10
2018-04-01T09:58:11.094Z,77.91
2018-04-01T09:59:11.099Z,78.20
2018-04-01T10:00:11.106Z,80.14
2018-04-01T10:01:11.112Z,82.60
2018-04-01T10:02:11.132Z,82.79
2018-04-01T10:03:11.127Z,82.98
2018-04-01T10:04:11.134Z,83.54
2018-04-01T10:05:11.140Z,82.54
2018-04-01T10:06:11.139Z,79.80
2018-04-01T10:07:11.147Z,78.67
2018-04-01T10:08:11.159Z,77.44
2018-04-01T10:09:11.160Z,77.06
2018-04-01T10:10:11.164Z,78.01
2018-04-01T10:11:11.177Z,76.68
2018-04-01T10:12:11.184Z,75.78
2018-04-01T10:13:11.184Z,75.31
2018-04-01T10:14:11.189Z,75.02
2018-04-01T10:15:11.245Z,73.98
2018-04-01T10:16:11.207Z,73.16
2018-04-01T10:17:11.208Z,71.93
2018-04-01T10:18:11.220Z,71.36
2018-04-01T10:19:11.226Z,71.14
2018-04-01T10:20:11.254Z,72.41
2018-04-01T10:21:11.234Z,72.60
2018-04-01T10:22:11.244Z,72.12
2018-04-01T10:23:11.253Z,71.46
2018-04-01T10:24:11.262Z,69.95
2018-04-01T10:25:11.260Z,69.09
2018-04-01T10:26:11.266Z,68.43
2018-04-01T10:27:11.274Z,69.09
2018-04-01T10:28:11.282Z,69.38
2018-04-01T10:29:11.286Z,68.27
2018-04-01T10:30:11.299Z,68.18
2018-04-01T10:31:11.307Z,68.08
2018-04-01T10:32:11.317Z,68.94
2018-04-01T10:33:11.315Z,69.89
2018-04-01T10:34:11.321Z,68.81
2018-04-01T10:35:11.329Z,67.77
2018-04-01T10:36:11.343Z,69.28
2018-04-01T10:37:11.342Z,69.47
2018-04-01T10:38:11.356Z,69.09
2018-04-01T10:39:11.363Z,70.42
2018-04-01T10:40:11.364Z,70.76
2018-04-01T10:41:11.370Z,71.55
2018-04-01T10:42:11.379Z,71.36
2018-04-01T10:43:11.392Z,71.42
2018-04-01T10:44:11.398Z,71.90
2018-04-01T10:45:11.399Z,72.50
2018-04-01T10:46:11.411Z,71.59
2018-04-01T10:47:11.418Z,70.07
2018-04-01T10:48:11.421Z,69.47
2018-04-01T10:49:11.429Z,71.23
2018-04-01T10:50:11.443Z,72.41
2018-04-01T10:51:11.452Z,71.46
2018-04-01T10:52:11.459Z,70.42
2018-04-01T10:53:11.466Z,69.57
2018-04-01T10:54:11.466Z,69.28
2018-04-01T10:55:11.474Z,70.23
2018-04-01T10:56:11.487Z,70.29
2018-04-01T10:57:11.488Z,71.61
2018-04-01T10:58:11.501Z,73.03
2018-04-01T10:59:11.506Z,74.26
2018-04-01T11:00:11.512Z,74.64
2018-04-01T11:01:11.524Z,76.06
2018-04-01T11:02:11.532Z,75.12
2018-04-01T11:03:11.532Z,74.74
2018-04-01T11:04:11.544Z,73.22
2018-04-01T11:05:11.578Z,72.66
2018-04-01T11:06:11.566Z,71.84
2018-04-01T11:07:11.601Z,72.03
2018-04-01T11:08:11.571Z,71.46
2018-04-01T11:09:11.581Z,70.98
2018-04-01T11:10:11.588Z,70.04
2018-04-01T11:11:11.594Z,68.90
2018-04-01T11:12:11.603Z,68.81
2018-04-01T11:13:11.602Z,69.51
2018-04-01T11:14:11.610Z,69.32
2018-04-01T11:15:11.624Z,68.56
2018-04-01T11:16:11.635Z,66.38
2018-04-01T11:17:11.638Z,65.34
2018-04-01T11:18:11.640Z,63.92
2018-04-01T11:19:11.649Z,63.39
2018-04-01T11:20:11.656Z,62.34
2018-04-01T11:21:11.673Z,60.76
2018-04-01T11:22:11.671Z,60.64
2018-04-01T11:23:11.681Z,62.82
2018-04-01T11:24:11.687Z,63.67
2018-04-01T11:25:11.706Z,64.68
2018-04-01T11:26:11.704Z,66.25
2018-04-01T11:27:11.716Z,67.83
2018-04-01T11:28:11.790Z,69.28
2018-04-01T11:29:11.735Z,68.43
2018-04-01T11:30:11.742Z,66.73
2018-04-01T11:31:11.757Z,68.05
2018-04-01T11:32:11.758Z,67.24
2018-04-01T11:33:11.759Z,68.05
2018-04-01T11:34:11.782Z,70.86
2018-04-01T11:35:11.779Z,70.01
2018-04-01T11:36:11.785Z,70.20
2018-04-01T11:37:11.793Z,71.61
2018-04-01T11:38:11.806Z,74.02
2018-04-01T11:39:11.810Z,70.23
2018-04-01T11:40:11.819Z,67.80
2018-04-01T11:41:11.825Z,66.19
2018-04-01T11:42:11.835Z,64.11
2018-04-01T11:43:11.844Z,62.75
2018-04-01T11:44:11.857Z,61.33
2018-04-01T11:45:11.865Z,58.39
2018-04-01T11:46:11.872Z,60.57
2018-04-01T11:47:11.874Z,60.38
2018-04-01T11:48:11.883Z,60.38
2018-04-01T11:49:11.891Z,60.38
2018-04-01T11:50:11.899Z,60.57
2018-04-01T11:51:11.915Z,59.37
2018-04-01T11:52:11.922Z,57.59
2018-04-01T11:53:11.926Z,55.44
2018-04-01T11:54:11.940Z,54.21
2018-04-01T11:55:11.947Z,53.80
2018-04-01T11:56:11.958Z,54.37
2018-04-01T11:57:11.982Z,54.44
2018-04-01T11:58:11.977Z,56.78
2018-04-01T11:59:11.990Z,58.36
2018-04-01T12:00:11.993Z,55.73
2018-04-01T12:01:12.012Z,52.69
2018-04-01T12:02:12.011Z,52.43
2018-04-01T12:03:12.034Z,51.95
2018-04-01T12:04:12.037Z,52.02
2018-04-01T12:05:12.042Z,54.25
2018-04-01T12:06:12.056Z,56.34
2018-04-01T12:07:12.068Z,56.34
2018-04-01T12:08:12.079Z,56.34
2018-04-01T12:09:12.089Z,56.62
2018-04-01T12:10:12.100Z,57.06
2018-04-01T12:11:12.111Z,57.25
2018-04-01T12:12:12.119Z,57.42
2018-04-01T12:13:12.125Z,58.81
2018-04-01T12:14:12.142Z,59.91
2018-04-01T12:15:12.146Z,61.05
2018-04-01T12:16:12.163Z,62.63
2018-04-01T12:17:12.170Z,64.90
2018-04-01T12:18:12.183Z,66.60
2018-04-01T12:19:12.191Z,68.81
2018-04-01T12:20:12.194Z,68.15
2018-04-01T12:21:12.203Z,67.96
2018-04-01T12:22:12.213Z,67.26
2018-04-01T12:23:12.228Z,67.07
2018-04-01T12:24:12.239Z,67.11
2018-04-01T12:25:12.248Z,67.86
2018-04-01T12:26:12.259Z,68.33
2018-04-01T12:27:12.267Z,65.44
2018-04-01T12:28:12.270Z,62.08
2018-04-01T12:29:12.278Z,58.70
2018-04-01T12:30:12.293Z,56.29
2018-04-01T12:31:12.305Z,55.22
2018-04-01T12:32:12.307Z,54.87
2018-04-01T12:33:12.321Z,52.91
2018-04-01T12:34:12.326Z,49.96
2018-04-01T12:35:12.342Z,50.99
2018-04-01T12:36:12.355Z,56.06
2018-04-01T12:37:12.355Z,59.00
2018-04-01T12:38:12.376Z,61.36
2018-04-01T12:39:12.382Z,64.01
2018-04-01T12:40:12.391Z,63.92
2018-04-01T12:41:12.396Z,62.88
2018-04-01T12:42:12.412Z,63.60
2018-04-01T12:43:12.422Z,65.94
2018-04-01T12:44:12.435Z,68.21
2018-04-01T12:45:12.447Z,69.02
2018-04-01T12:46:12.451Z,70.44
2018-04-01T12:47:12.460Z,71.58
2018-04-01T12:48:12.486Z,72.99
2018-04-01T12:49:12.479Z,73.98
2018-04-01T12:50:12.483Z,73.13
2018-04-01T12:51:12.491Z,73.03
2018-04-01T12:52:12.500Z,72.28